Main page
METAR-TAF:

METAR-TAF

Airports :

Odessa International Airport

Odessa, Ukraine

latitude: 46-26N, longitude: 030-46E, elevation: 42 m

Current weather observation

The report was made 29 minutes ago, at 05:00 UTC
Wind 6 kt from the East
Temperature 11°C
Humidity 82%
Pressure 1028 hPa
Visibility 10 km or more
no clouds below 1500 m and no cumulonimbus

METAR: UKOO 240500Z 08003MPS CAVOK 11/08 Q1028 R34/090060 NOSIG

Time: 08:29 (05:29 UTC)

Forecast

The report was made 6 hours and 24 minutes ago, at 23:05 UTC
Forecast valid from 24 at 00 UTC to 24 at 24 UTC
Wind 6 kt from the East
Visibility: 6000 m
Broken clouds at a height of 1000 ft
Scattered clouds at a height of 2000 ft, Cumulonimbus.
Temporary
from 24 at 00 UTC to 24 at 06 UTC
Visibility: 2100 m
mist
Becoming
from 24 at 06 UTC to 24 at 07 UTC
Wind 8 kt from the South/Southeast

TAF: UKOO 232305Z 2400/2424 10003MPS 6000 BKN010 SCT020CB TX17/2412Z TN03/2403Z TEMPO 2400/2406 2100 BR BECMG 2406/2407 16004MPS

Weather observations and forecasts of more than 4000 airports (METAR and TAF reports).

The available stations are represented by yellow and red dots on the map.

Hover mouse over dot to see the name of the station.

Then click to see weather observations and forecasts.

To change the map : click on the green buttons with a black cross to zoom in, on the green button with a dash to zoom out, or on the green arrows for adjacent maps.


METAR-TAF: